Time,TemperatureF,DewpointF,PressureIn,WindDirection,WindDirectionDegrees,WindSpeedMPH,WindSpeedGustMPH,Humidity,HourlyPrecipIn,Conditions,Clouds,dailyrainin,SoftwareType,DateUTC
2013-02-07 02:28:00,27.4,27.1,30.40,North,0,0.0,0.0,99,0.00,,,0.00,WUHU21623XXSP,2013-02-07 07:28:00,
2013-02-07 02:29:00,27.4,27.1,30.40,North,0,0.0,0.0,99,0.00,,,0.00,WUHU21623XXSP,2013-02-07 07:29:00,
2013-02-07 02:34:00,27.4,16.5,30.40,NNE,22,0.0,0.2,63,0.00,,,0.00,WUHU21623XXSP,2013-02-07 07:34:00,
2013-02-07 02:39:00,27.4,16.5,30.40,NNE,22,0.2,0.7,63,0.00,,,0.00,WUHU21623XXSP,2013-02-07 07:39:00,
2013-02-07 02:44:00,27.2,16.3,30.39,NNE,22,0.0,0.7,63,0.00,,,0.00,WUHU21623XXSP,2013-02-07 07:44:00,
2013-02-07 02:49:00,27.0,16.1,30.39,NNE,22,0.2,0.7,63,0.00,,,0.00,WUHU21623XXSP,2013-02-07 07:49:00,
2013-02-07 02:54:00,27.0,16.1,30.39,NNE,22,0.3,0.9,63,0.00,,,0.00,WUHU21623XXSP,2013-02-07 07:54:00,
2013-02-07 02:59:00,27.0,16.1,30.39,ESE,109,2.9,5.4,63,0.00,,,0.00,WUHU21623XXSP,2013-02-07 07:59:00,
2013-02-07 03:04:00,27.0,16.1,30.40,North,0,0.0,5.4,63,0.00,,,0.00,WUHU21623XXSP,2013-02-07 08:04:00,
2013-02-07 03:09:00,27.0,16.1,30.40,North,0,0.0,1.8,63,0.00,,,0.00,WUHU21623XXSP,2013-02-07 08:09:00,
2013-02-07 03:14:00,27.0,16.1,30.40,NNE,22,0.2,1.8,63,0.00,,,0.00,WUHU21623XXSP,2013-02-07 08:14:00,
2013-02-07 03:19:00,27.0,16.1,30.39,North,353,0.7,1.8,63,0.00,,,0.00,WUHU21623XXSP,2013-02-07 08:19:00,
2013-02-07 03:24:00,27.0,16.1,30.39,NNE,22,0.7,0.8,63,0.00,,,0.00,WUHU21623XXSP,2013-02-07 08:24:00,
2013-02-07 03:29:00,27.0,16.1,30.39,North,0,0.6,0.7,63,0.00,,,0.00,WUHU21623XXSP,2013-02-07 08:29:00,
2013-02-07 03:34:00,27.0,16.1,30.38,NNE,22,0.4,0.6,63,0.00,,,0.00,WUHU21623XXSP,2013-02-07 08:34:00,
2013-02-07 03:39:00,26.8,15.9,30.38,North,0,0.0,0.4,63,0.00,,,0.00,WUHU21623XXSP,2013-02-07 08:39:00,
2013-02-07 03:44:00,26.8,16.3,30.37,West,270,4.3,4.3,64,0.00,,,0.00,WUHU21623XXSP,2013-02-07 08:44:00,
2013-02-07 03:49:00,26.8,16.3,30.37,NNE,22,0.0,4.3,64,0.00,,,0.00,WUHU21623XXSP,2013-02-07 08:49:00,
2013-02-07 03:54:00,26.8,16.3,30.37,NNE,22,0.0,0.0,64,0.00,,,0.00,WUHU21623XXSP,2013-02-07 08:54:00,
2013-02-07 03:59:00,26.8,16.3,30.37,NNE,22,0.0,0.0,64,0.00,,,0.00,WUHU21623XXSP,2013-02-07 08:59:00,
2013-02-07 04:04:00,26.8,16.3,30.37,NNE,22,0.0,0.0,64,0.00,,,0.00,WUHU21623XXSP,2013-02-07 09:04:00,
2013-02-07 04:09:00,26.8,16.3,30.36,NNE,22,0.0,0.0,64,0.00,,,0.00,WUHU21623XXSP,2013-02-07 09:09:00,
2013-02-07 04:14:00,26.8,16.3,30.37,NNE,22,0.0,0.0,64,0.00,,,0.00,WUHU21623XXSP,2013-02-07 09:14:00,
2013-02-07 04:19:00,26.8,16.3,30.36,NNE,22,0.0,0.0,64,0.00,,,0.00,WUHU21623XXSP,2013-02-07 09:19:00,
2013-02-07 04:24:00,26.7,16.2,30.37,NNE,22,0.0,0.0,64,0.00,,,0.00,WUHU21623XXSP,2013-02-07 09:24:00,
2013-02-07 04:29:00,26.7,16.6,30.36,NNE,22,0.0,0.0,65,0.00,,,0.00,WUHU21623XXSP,2013-02-07 09:29:00,
2013-02-07 04:34:00,26.7,16.6,30.37,NNE,22,0.0,0.0,65,0.00,,,0.00,WUHU21623XXSP,2013-02-07 09:34:00,
2013-02-07 04:39:00,26.7,16.6,30.37,NNE,22,0.0,0.0,65,0.00,,,0.00,WUHU21623XXSP,2013-02-07 09:39:00,
2013-02-07 04:44:00,26.7,16.6,30.36,NNE,22,0.0,0.0,65,0.00,,,0.00,WUHU21623XXSP,2013-02-07 09:44:00,
2013-02-07 04:49:00,26.7,16.6,30.37,NNE,22,0.0,0.0,65,0.00,,,0.00,WUHU21623XXSP,2013-02-07 09:49:00,
2013-02-07 04:56:00,26.7,16.6,30.38,NNE,22,0.0,0.0,65,0.00,,,0.00,WUHU21623XXSP,2013-02-07 09:56:00,
2013-02-07 05:01:00,26.7,16.6,30.38,NNE,22,0.0,0.0,65,0.00,,,0.00,WUHU21623XXSP,2013-02-07 10:01:00,
2013-02-07 05:06:00,26.7,16.6,30.38,NNE,22,0.0,0.0,65,0.00,,,0.00,WUHU21623XXSP,2013-02-07 10:06:00,
2013-02-07 05:11:00,26.7,16.6,30.38,NNE,22,0.0,0.0,65,0.00,,,0.00,WUHU21623XXSP,2013-02-07 10:11:00,
2013-02-07 05:16:00,26.7,16.6,30.38,North,0,0.0,0.0,65,0.00,,,0.00,WUHU21623XXSP,2013-02-07 10:16:00,
2013-02-07 05:21:00,26.7,16.6,30.39,NNE,22,0.0,0.0,65,0.00,,,0.00,WUHU21623XXSP,2013-02-07 10:21:00,
2013-02-07 05:26:00,26.7,16.6,30.39,NNE,22,0.0,0.0,65,0.00,,,0.00,WUHU21623XXSP,2013-02-07 10:26:00,
2013-02-07 05:36:00,26.8,16.7,30.39,NNE,22,0.0,0.0,65,0.00,,,0.00,WUHU21623XXSP,2013-02-07 10:36:00,
2013-02-07 05:41:00,26.8,16.7,30.38,NNE,22,0.0,0.0,65,0.00,,,0.00,WUHU21623XXSP,2013-02-07 10:41:00,
2013-02-07 05:46:00,26.8,16.7,30.39,NNE,22,0.0,0.0,65,0.00,,,0.00,WUHU21623XXSP,2013-02-07 10:46:00,
2013-02-07 05:51:00,26.8,16.7,30.39,NNE,22,0.0,0.0,65,0.00,,,0.00,WUHU21623XXSP,2013-02-07 10:51:00,
2013-02-07 06:17:00,26.8,17.0,30.40,NNE,22,0.0,0.0,66,0.00,,,0.00,WUHU21623XXSP,2013-02-07 11:17:00,
2013-02-07 06:22:00,26.8,17.0,30.40,NNE,22,0.0,0.0,66,0.00,,,0.00,WUHU21623XXSP,2013-02-07 11:22:00,
2013-02-07 06:35:00,26.7,16.9,30.41,NNE,22,0.0,0.0,66,0.00,,,0.00,WUHU21623XXSP,2013-02-07 11:35:00,
2013-02-07 06:40:00,26.7,16.9,30.41,NNE,22,0.0,0.0,66,0.00,,,0.00,WUHU21623XXSP,2013-02-07 11:40:00,
2013-02-07 06:45:00,26.7,16.9,30.41,NNE,22,0.0,0.0,66,0.00,,,0.00,WUHU21623XXSP,2013-02-07 11:45:00,
2013-02-07 06:50:00,26.7,16.9,30.42,NNE,22,0.0,0.0,66,0.00,,,0.00,WUHU21623XXSP,2013-02-07 11:50:00,
2013-02-07 06:55:00,26.7,16.9,30.42,NNE,22,0.0,0.0,66,0.00,,,0.00,WUHU21623XXSP,2013-02-07 11:55:00,
2013-02-07 07:00:00,26.8,17.0,30.42,NNE,22,0.0,0.0,66,0.00,,,0.00,WUHU21623XXSP,2013-02-07 12:00:00,
2013-02-07 07:05:00,26.8,17.4,30.43,NNE,22,0.0,0.0,67,0.00,,,0.00,WUHU21623XXSP,2013-02-07 12:05:00,
2013-02-07 07:10:00,26.8,17.4,30.43,NNE,22,0.2,0.2,67,0.00,,,0.00,WUHU21623XXSP,2013-02-07 12:10:00,
2013-02-07 07:15:00,27.0,17.6,30.43,NNE,22,0.0,0.2,67,0.00,,,0.00,WUHU21623XXSP,2013-02-07 12:15:00,
2013-02-07 07:20:00,27.0,17.6,30.43,NNE,22,0.0,0.2,67,0.00,,,0.00,WUHU21623XXSP,2013-02-07 12:20:00,
2013-02-07 07:25:00,27.2,17.7,30.43,North,0,0.0,0.2,67,0.00,,,0.00,WUHU21623XXSP,2013-02-07 12:25:00,
2013-02-07 07:30:00,27.4,17.9,30.43,North,0,0.0,6.9,67,0.00,,,0.00,WUHU21623XXSP,2013-02-07 12:30:00,
2013-02-07 07:35:00,27.4,17.9,30.43,North,0,0.0,6.9,67,0.00,,,0.00,WUHU21623XXSP,2013-02-07 12:35:00,